• Join FlightAware (Why Join?)
  • Login
  • US Flag 
04:39AM EDT


 

Airport Tracker/Info


-or-


 

Live Flight TrackerFlight Track Log ✈ SWA2702 ✈ 23-Apr-2013 ✈ KSNA - KSFO

Flight Track Log - Related Links

Times and Time Zones

All times are in EDT time to prevent confusion due to time zone crossing. See the SWA2702 flight status page for this flight to view local times or setup timezone preferences in your user account.

Time Position Orientation Groundspeed Altitude Reporting Facility
EDT Latitude Longitude Course Direction KTS MPH feet Rate Location/Type
11:07AM 33.6500 -117.8833 193° South 144 166 1,400  Level Southern California TRACON
11:08AM 33.5919 -117.8992 193° South 153 176 3,600 1,920 Climbing Los Angeles Center
11:09AM 33.5314 -117.9353 206° Southwest 237 273 6,400 3,060 Climbing Los Angeles Center
11:10AM 33.4722 -117.9794 212° Southwest 251 289 10,000 2,820 Climbing Los Angeles Center
11:11AM 33.3944 -118.0369 212° Southwest 309 356 12,300 2,580 Climbing Los Angeles Center
11:12AM 33.3372 -118.1197 230° Southwest 343 395 15,400 2,700 Climbing Los Angeles Center
11:14AM 33.3536 -118.2575 278° West 346 398 18,000 2,220 Climbing Los Angeles Center
11:15AM 33.3681 -118.3736 279° West 350 403 20,000 2,160 Climbing Los Angeles Center
11:16AM 33.4269 -118.4664 307° West 362 417 22,500 2,100 Climbing Los Angeles Center
11:17AM 33.5067 -118.5564 317° Northwest 381 438 24,400 1,980 Climbing Los Angeles Center
11:18AM 33.5875 -118.6544 315° West 403 464 26,600 1,980 Climbing Los Angeles Center
11:19AM 33.6706 -118.7542 315° West 416 479 28,600 1,920 Climbing Los Angeles Center
11:20AM 33.7547 -118.8536 316° Northwest 421 484 30,700 1,980 Climbing Los Angeles Center
11:21AM 33.8381 -118.9544 315° West 423 487 32,800 1,980 Climbing Los Angeles Center
11:22AM 33.9369 -119.0733 315° West 418 481 34,800 1,500 Climbing Los Angeles Center
11:23AM 34.0186 -119.1744 314° West 420 483 36,000 540 Climbing Los Angeles Center
11:24AM 34.1019 -119.2742 315° West 422 486 36,000  Level Los Angeles Center
11:25AM 34.1839 -119.3742 315° West 420 483 36,000  Level Los Angeles Center
11:26AM 34.2664 -119.4747 315° West 421 484 36,000  Level Los Angeles Center
11:27AM 34.3469 -119.5756 314° West 418 481 36,000  Level Los Angeles Center
11:28AM 34.4450 -119.6944 315° West 415 478 36,000  Level Los Angeles Center
11:29AM 34.5272 -119.7936 315° West 416 479 36,000  Level Los Angeles Center
11:30AM 34.6181 -119.8917 318° Northwest 418 481 36,000  Level Los Angeles Center
11:31AM 34.7053 -119.9853 319° Northwest 420 483 36,000  Level Los Angeles Center
11:32AM 34.7914 -120.0794 318° Northwest 417 480 36,000  Level Los Angeles Center
11:33AM 34.8731 -120.1692 318° Northwest 417 480 36,000  Level Los Angeles Center
11:34AM 34.9747 -120.2811 318° Northwest 415 478 36,000  Level Los Angeles Center
11:35AM 35.0589 -120.3733 318° Northwest 412 474 36,000  Level Los Angeles Center
11:36AM 35.1433 -120.4667 318° Northwest 412 474 36,000  Level Los Angeles Center
11:37AM 35.2283 -120.5611 318° Northwest 416 479 36,000  Level Los Angeles Center
11:38AM 35.3208 -120.6442 324° Northwest 416 479 36,000  Level Los Angeles Center
11:39AM 35.4331 -120.7464 323° Northwest 420 483 36,000  Level Los Angeles Center
11:40AM 35.4661 -120.7753 325° Northwest 419 482 36,000  Level Oakland Center
11:41AM 35.5614 -120.8597 324° Northwest 421 484 36,000  Level Oakland Center
11:42AM 35.6556 -120.9458 323° Northwest 419 482 36,000  Level Oakland Center
11:43AM 35.7489 -121.0342 322° Northwest 419 482 36,000  Level Oakland Center
11:44AM 35.8439 -121.1200 324° Northwest 419 482 36,000  Level Oakland Center
11:45AM 35.9375 -121.2075 323° Northwest 419 482 36,000 -840 Level Oakland Center
11:46AM 36.0300 -121.2931 323° Northwest 412 474 34,400 -1,920 Descending Oakland Center
11:47AM 36.1211 -121.3786 323° Northwest 410 472 32,200 -2,100 Descending Oakland Center
11:48AM 36.2111 -121.4603 324° Northwest 399 459 30,200 -2,160 Descending Oakland Center
11:49AM 36.3133 -121.5578 322° Northwest 386 444 27,800 -2,160 Descending Oakland Center
11:50AM 36.3956 -121.6333 324° Northwest 370 426 25,900 -1,860 Descending Oakland Center
11:51AM 36.4750 -121.7100 322° Northwest 359 413 24,100 -1,800 Descending Oakland Center
11:52AM 36.5528 -121.7806 324° Northwest 345 397 22,300 -1,800 Descending Oakland Center
11:52AM 36.5833 -121.8167 317° Northwest 341 392 21,500 -1,740 Descending Northern Cal TRACON
11:53AM 36.6667 -121.8833 327° Northwest 332 382 19,800 -1,740 Descending Northern Cal TRACON
11:54AM 36.7333 -121.9500 321° Northwest 324 373 18,100 -1,740 Descending Northern Cal TRACON
11:55AM 36.8167 -121.9833 342° North 311 358 16,600 -1,680 Descending Northern Cal TRACON
11:56AM 36.9000 -122.0000 351° North 305 351 15,000 -1,560 Descending Northern Cal TRACON
11:57AM 36.9519 -122.0167 346° North 302 348 13,900 -1,560 Descending Oakland Center
11:58AM 37.0331 -122.0392 348° North 299 344 12,300 -1,200 Descending Oakland Center
11:59AM 37.1117 -122.0600 348° North 289 333 11,500 -780 Descending Oakland Center
12:00PM 37.1792 -122.0786 348° North 252 290 10,800 -840 Descending Oakland Center
12:01PM 37.2425 -122.0936 349° North 234 269 9,900 -1,140 Descending Oakland Center
12:02PM 37.3028 -122.1086 349° North 222 255 8,500 -1,560 Descending Oakland Center
12:03PM 37.3758 -122.1297 347° North 224 258 6,800 -1,440 Descending Oakland Center
12:04PM 37.4339 -122.1444 349° North 217 250 5,600 -1,380 Descending Oakland Center
12:05PM 37.4897 -122.1592 348° North 209 241 4,000 -1,380 Descending Oakland Center
12:06PM 37.5367 -122.1983 327° Northwest 207 238 2,800 -1,140 Descending Oakland Center
12:07PM 37.5672 -122.2533 305° West 200 230 1,700 -960 Descending Oakland Center
12:08PM 37.5886 -122.3058 297° West 184 212 900 -840 Descending Oakland Center
12:09PM 37.6064 -122.3497 297° West 161 185 100 -840 Descending Oakland Center
12:11PM 37.6167 -122.3667 322° Northwest  Level FlightAware Approximate
12:18PM 37.6191 -122.3752 322° Northwest  Level Estimated